Time;durP1;ratioP1;P1;durP2;ratioP2;P2;SDS_P1;SDS_P2;PMS_P1;PMS_P2;Temp;Humidity;BMP_temperature;BMP_pressure;BME280_temperature;BME280_humidity;BME280_pressure;Samples;Min_cycle;Max_cycle;Signal;HPM_P1;HPM_P2
2023/06/17 00:02:34;;;;;;;2.05;1.30;;;;;;;;;;20776783;28;20223;-67
2023/06/17 00:12:36;;;;;;;2.60;1.30;;;;;;;;;;20776516;28;20563;-68
2023/06/17 00:22:39;;;;;;;2.78;1.55;;;;;;;;;;20776101;28;20735;-68
2023/06/17 00:32:41;;;;;;;4.30;1.30;;;;;;;;;;20771521;28;20281;-68
2023/06/17 00:42:43;;;;;;;4.50;1.55;;;;;;;;;;20762286;28;20232;-68
2023/06/17 00:52:45;;;;;;;1.55;1.10;;;23.80;89.20;;;;;;20772755;28;20251;-68
2023/06/17 01:02:47;;;;;;;2.03;1.27;;;;;;;;;;20787111;28;20226;-67
2023/06/17 01:12:54;;;;;;;3.72;1.38;;;23.50;86.50;;;;;;20785902;28;20225;-68
2023/06/17 01:22:56;;;;;;;2.70;1.40;;;23.70;81.50;;;;;;20770586;28;20232;-67
2023/06/17 01:32:59;;;;;;;3.70;1.90;;;23.40;84.20;;;;;;20770473;28;20633;-68
2023/06/17 01:43:03;;;;;;;3.20;1.38;;;;;;;;;;20785866;28;20298;-67
2023/06/17 01:53:05;;;;;;;3.47;1.60;;;;;;;;;;20767587;28;20237;-67
2023/06/17 02:03:07;;;;;;;4.18;1.48;;;;;;;;;;20768213;28;20224;-68
2023/06/17 02:13:09;;;;;;;3.45;1.50;;;;;;;;;;20750302;28;20284;-68
2023/06/17 02:23:12;;;;;;;2.13;1.40;;;;;;;;;;20750439;28;20643;-68
2023/06/17 02:33:17;;;;;;;2.05;1.48;;;22.60;92.80;;;;;;20767282;28;20601;-68
2023/06/17 02:43:21;;;;;;;2.97;1.50;;;;;;;;;;20782238;28;20234;-68
2023/06/17 02:53:23;;;;;;;5.18;1.45;;;;;;;;;;20766355;28;20279;-67
2023/06/17 03:03:34;;;;;;;7.85;2.55;;;22.20;87.50;;;;;;20752147;23;20231;-74
2023/06/17 03:13:37;;;;;;;12.30;2.75;;;;;;;;;;20668209;28;20295;-75
2023/06/17 03:23:45;;;;;;;3.60;1.65;;;;;;;;;;20650785;28;20778;-74
2023/06/17 03:33:48;;;;;;;4.80;1.63;;;;;;;;;;20662477;28;20586;-74
2023/06/17 03:43:50;;;;;;;5.07;1.30;;;;;;;;;;20659747;28;20763;-75
2023/06/17 03:53:52;;;;;;;11.77;3.10;;;;;;;;;;20643830;28;20239;-74
2023/06/17 04:03:53;;;;;;;5.10;1.90;;;;;;;;;;20673390;28;20231;-73
2023/06/17 04:13:55;;;;;;;3.70;1.90;;;;;;;;;;20655362;28;20229;-73
2023/06/17 04:23:57;;;;;;;3.03;2.00;;;;;;;;;;20645613;28;20233;-73
2023/06/17 04:34:00;;;;;;;3.70;1.90;;;;;;;;;;20625321;28;20275;-73
2023/06/17 04:44:02;;;;;;;3.07;1.50;;;;;;;;;;20643655;28;20237;-73
2023/06/17 04:54:05;;;;;;;2.20;1.77;;;;;;;;;;20640579;28;20219;-73
2023/06/17 05:04:07;;;;;;;3.77;1.70;;;;;;;;;;20641061;28;20217;-73
2023/06/17 05:14:09;;;;;;;3.67;1.73;;;;;;;;;;20647682;28;20235;-75
2023/06/17 05:24:11;;;;;;;2.73;1.73;;;;;;;;;;20639581;28;20224;-74
2023/06/17 05:34:13;;;;;;;6.03;2.00;;;;;;;;;;20627815;28;20216;-74
2023/06/17 05:44:15;;;;;;;2.60;1.83;;;;;;;;;;20637669;28;20224;-75
2023/06/17 05:54:17;;;;;;;3.80;1.77;;;;;;;;;;20621407;28;20225;-75
2023/06/17 06:04:19;;;;;;;2.50;1.70;;;;;;;;;;20637725;28;20221;-75
2023/06/17 06:14:21;;;;;;;2.33;1.77;;;;;;;;;;20631326;28;20586;-74
2023/06/17 06:24:28;;;;;;;5.93;2.33;;;;;;;;;;20634273;28;20264;-75
2023/06/17 06:34:30;;;;;;;2.10;1.33;;;;;;;;;;20619751;28;20225;-74
2023/06/17 06:44:32;;;;;;;2.53;1.92;;;;;;;;;;20666193;28;20246;-75
2023/06/17 06:54:34;;;;;;;2.22;1.45;;;;;;;;;;20633885;28;20223;-76
2023/06/17 07:04:36;;;;;;;2.25;1.50;;;;;;;;;;20634176;28;20298;-74
2023/06/17 07:14:41;;;;;;;2.53;1.63;;;;;;;;;;20648167;28;20225;-74
2023/06/17 07:24:42;;;;;;;2.30;1.40;;;;;;;;;;20649576;28;20225;-75
2023/06/17 07:34:44;;;;;;;3.97;1.60;;;;;;;;;;20615342;28;20267;-74
2023/06/17 07:44:46;;;;;;;2.22;1.50;;;;;;;;;;20644278;28;20222;-75
2023/06/17 07:54:48;;;;;;;5.35;1.70;;;;;;;;;;20657517;28;20666;-75
2023/06/17 08:04:51;;;;;;;3.55;1.50;;;;;;;;;;20640024;28;20250;-76
2023/06/17 08:14:56;;;;;;;4.07;1.70;;;;;;;;;;20629987;28;20220;-76
2023/06/17 08:25:00;;;;;;;4.93;1.70;;;;;;;;;;20665666;28;20306;-75
2023/06/17 08:35:06;;;;;;;3.78;1.45;;;;;;;;;;20656077;28;20217;-74
2023/06/17 08:45:08;;;;;;;2.50;1.33;;;;;;;;;;20660896;28;20228;-75
2023/06/17 08:55:10;;;;;;;5.10;1.60;;;;;;;;;;20657742;28;20217;-75
2023/06/17 09:05:12;;;;;;;2.58;1.30;;;;;;;;;;20691773;23;20233;-86
2023/06/17 09:15:19;;;;;;;1.63;1.17;;;;;;;;;;20969318;28;20218;-85
2023/06/17 09:25:21;;;;;;;2.95;1.23;;;;;;;;;;20972434;28;20237;-87
2023/06/17 09:35:23;;;;;;;1.92;1.20;;;;;;;;;;20916339;28;20226;-87
2023/06/17 09:45:25;;;;;;;2.63;1.60;;;;;;;;;;20952195;28;20236;-87
2023/06/17 09:55:28;;;;;;;2.45;1.30;;;;;;;;;;20968185;28;20780;-86
2023/06/17 10:05:30;;;;;;;4.25;1.50;;;;;;;;;;20986510;28;20787;-87
2023/06/17 10:15:33;;;;;;;2.10;1.30;;;;;;;;;;20931175;28;20229;-87
2023/06/17 10:25:36;;;;;;;2.33;1.20;;;;;;;;;;20969949;28;20236;-87
2023/06/17 10:35:39;;;;;;;2.40;1.38;;;;;;;;;;20951710;28;20219;-86
2023/06/17 10:45:54;;;;;;;2.13;1.27;;;;;;;;;;20951288;28;20250;-86
2023/06/17 10:55:56;;;;;;;1.70;1.02;;;;;;;;;;20932583;28;20261;-86
2023/06/17 11:06:16;;;;;;;2.97;1.50;;;;;;;;;;20955866;28;20294;-86
2023/06/17 11:16:23;;;;;;;1.80;1.20;;;;;;;;;;20946893;28;20962;-87
2023/06/17 11:26:26;;;;;;;2.85;1.30;;;;;;;;;;21020015;28;20236;-87
2023/06/17 11:36:28;;;;;;;2.00;1.40;;;;;;;;;;20979779;28;20220;-86
2023/06/17 11:46:30;;;;;;;3.22;1.65;;;;;;;;;;21000100;28;20288;-86
2023/06/17 11:56:32;;;;;;;2.20;1.20;;;;;;;;;;21002282;28;20224;-86
2023/06/17 12:06:36;;;;;;;1.52;1.05;;;;;;;;;;20994207;28;20286;-87
2023/06/17 12:16:40;;;;;;;1.90;1.23;;;;;;;;;;20934650;28;20209;-86
2023/06/17 12:26:44;;;;;;;1.55;1.13;;;;;;;;;;20942315;28;20231;-86
2023/06/17 12:36:46;;;;;;;1.98;1.17;;;;;;;;;;20918151;28;20227;-86
2023/06/17 12:46:47;;;;;;;3.65;1.30;;;;;;;;;;21028298;28;20265;-86
2023/06/17 12:56:49;;;;;;;3.05;1.35;;;;;;;;;;20964592;28;20186;-86
2023/06/17 13:06:52;;;;;;;2.10;1.20;;;;;;;;;;20959137;28;20231;-85
2023/06/17 13:16:55;;;;;;;1.40;1.10;;;;;;;;;;20911818;28;20221;-87
2023/06/17 13:26:57;;;;;;;1.60;1.00;;;;;;;;;;20935072;28;20225;-85
2023/06/17 13:37:02;;;;;;;2.42;1.33;;;;;;;;;;20919426;28;20209;-88
2023/06/17 13:47:05;;;;;;;2.00;1.40;;;;;;;;;;20970509;28;20656;-86
2023/06/17 13:57:08;;;;;;;3.13;1.27;;;;;;;;;;20962415;28;20202;-86
2023/06/17 14:07:09;;;;;;;2.63;1.40;;;;;;;;;;20954473;28;20241;-86
2023/06/17 14:17:11;;;;;;;3.50;1.30;;;;;;;;;;20906581;28;20227;-86
2023/06/17 14:27:32;;;;;;;1.30;1.00;;;;;;;;;;20944539;28;20264;-87
2023/06/17 14:37:33;;;;;;;13.75;3.42;;;;;;;;;;21023818;28;20214;-85
2023/06/17 14:47:35;;;;;;;3.22;1.80;;;;;;;;;;20995367;28;20220;-86
2023/06/17 14:57:37;;;;;;;2.42;1.30;;;;;;;;;;21009494;28;20266;-85
2023/06/17 15:07:40;;;;;;;1.67;1.15;;;;;;;;;;20987459;28;20234;-85
2023/06/17 15:17:42;;;;;;;6.20;1.30;;;;;;;;;;20983373;28;20685;-85
2023/06/17 15:27:43;;;;;;;1.85;1.10;;;;;;;;;;20908757;28;20229;-86
2023/06/17 15:37:45;;;;;;;1.35;1.05;;;;;;;;;;20985468;28;20218;-85
2023/06/17 15:47:47;;;;;;;2.60;1.50;;;;;;;;;;20984815;28;20654;-84
2023/06/17 15:57:49;;;;;;;2.60;1.55;;;;;;;;;;20966961;28;20255;-85
2023/06/17 16:07:51;;;;;;;1.52;1.10;;;;;;;;;;20964335;28;20645;-85
2023/06/17 16:17:53;;;;;;;2.42;1.30;;;;;;;;;;21003254;28;20225;-85
2023/06/17 16:27:55;;;;;;;1.88;1.25;;;;;;;;;;20990751;28;20614;-84
2023/06/17 16:37:57;;;;;;;1.60;1.17;;;;;;;;;;20944726;28;20278;-85
2023/06/17 16:47:59;;;;;;;1.67;1.23;;;;;;;;;;20951903;28;20225;-85
2023/06/17 16:58:00;;;;;;;2.33;1.55;;;;;;;;;;20979160;28;20225;-85
2023/06/17 17:08:02;;;;;;;1.88;1.15;;;;;;;;;;20947967;28;20233;-84
2023/06/17 17:18:04;;;;;;;1.88;1.15;;;;;;;;;;20991839;28;20758;-87
2023/06/17 17:28:07;;;;;;;1.95;1.30;;;;;;;;;;20990978;28;20237;-87
2023/06/17 17:38:08;;;;;;;1.50;1.10;;;;;;;;;;20969184;28;20290;-87
2023/06/17 17:48:10;;;;;;;1.90;1.40;;;;;;;;;;20963306;28;20229;-85
2023/06/17 17:58:12;;;;;;;1.80;1.10;;;;;;;;;;20988919;28;20287;-86
2023/06/17 18:08:13;;;;;;;2.20;1.40;;;;;;;;;;20975421;28;20787;-86
2023/06/17 18:18:23;;;;;;;2.58;1.45;;;;;;;;;;20936031;28;20286;-88
2023/06/17 18:28:26;;;;;;;1.77;1.10;;;;;;;;;;20941352;28;20225;-87
2023/06/17 18:38:29;;;;;;;5.07;1.70;;;;;;;;;;21015140;28;20221;-84
2023/06/17 18:48:31;;;;;;;3.50;1.58;;;;;;;;;;21007213;28;20249;-84
2023/06/17 18:58:33;;;;;;;2.55;1.70;;;;;;;;;;21014227;28;20279;-85
2023/06/17 19:08:34;;;;;;;2.28;1.35;;;;;;;;;;21014029;28;20244;-85
2023/06/17 19:18:36;;;;;;;2.08;1.48;;;;;;;;;;20977484;28;20289;-85
2023/06/17 19:28:39;;;;;;;2.40;1.45;;;;;;;;;;20974353;28;20369;-84
2023/06/17 19:38:41;;;;;;;2.13;1.40;;;;;;;;;;20977408;28;20305;-82
2023/06/17 19:48:43;;;;;;;3.80;1.40;;;;;;;;;;21009224;28;20239;-82
2023/06/17 19:58:45;;;;;;;3.85;1.48;;;;;;;;;;20981875;28;20583;-82
2023/06/17 20:08:47;;;;;;;4.75;1.80;;;;;;;;;;20947600;28;20240;-83
2023/06/17 20:18:49;;;;;;;2.55;1.58;;;;;;;;;;20972229;28;20647;-82
2023/06/17 20:28:51;;;;;;;3.42;1.73;;;;;;;;;;20999725;28;20282;-82
2023/06/17 20:38:53;;;;;;;3.08;1.80;;;;;;;;;;20945505;28;20595;-82
2023/06/17 20:48:54;;;;;;;4.30;1.65;;;;;;;;;;20961699;28;20247;-84
2023/06/17 20:58:56;;;;;;;8.45;1.67;;;;;;;;;;21028328;28;20357;-83
2023/06/17 21:08:58;;;;;;;3.65;1.42;;;;;;;;;;20976508;28;20239;-82
2023/06/17 21:18:59;;;;;;;2.28;1.65;;;;;;;;;;20920844;28;20235;-83
2023/06/17 21:29:01;;;;;;;3.55;1.50;;;;;;;;;;20959148;28;20223;-82
2023/06/17 21:39:03;;;;;;;2.60;1.52;;;;;;;;;;20994020;28;20305;-83
2023/06/17 21:49:05;;;;;;;3.20;2.08;;;;;;;;;;20978718;28;20239;-82
2023/06/17 21:59:07;;;;;;;3.85;1.73;;;;;;;;;;20950563;28;20242;-82
2023/06/17 22:09:09;;;;;;;2.28;1.60;;;;;;;;;;20981480;28;20243;-83
2023/06/17 22:19:11;;;;;;;4.10;1.95;;;;;;;;;;20976574;28;20316;-82
2023/06/17 22:29:12;;;;;;;4.38;1.85;;;;;;;;;;21041804;28;20300;-85
2023/06/17 22:39:15;;;;;;;2.78;1.85;;;;;;;;;;20980877;28;20233;-85
2023/06/17 22:49:17;;;;;;;2.35;1.83;;;;;;;;;;20996823;28;20294;-84
2023/06/17 22:59:19;;;;;;;4.18;1.70;;;;;;;;;;20974833;28;20297;-84
2023/06/17 23:09:20;;;;;;;4.55;1.77;;;;;;;;;;20971088;28;20270;-84
2023/06/17 23:19:23;;;;;;;3.97;2.03;;;;;;;;;;21032118;28;20220;-84
2023/06/17 23:29:25;;;;;;;4.90;1.83;;;;;;;;;;20986715;28;20313;-83
2023/06/17 23:39:27;;;;;;;3.72;2.13;;;;;;;;;;20974136;28;20285;-84
2023/06/17 23:49:28;;;;;;;3.88;1.70;;;;;;;;;;20974536;28;20594;-84
2023/06/17 23:59:31;;;;;;;2.95;2.00;;;;;;;;;;20926171;28;20286;-83
